sensor_id;sensor_type;location;lat;lon;timestamp;temperature;humidity
51637;DHT22;37713;53.254;6.460;2022-11-20T00:01:28;-0.60;99.90
51637;DHT22;37713;53.254;6.460;2022-11-20T00:03:56;-0.60;99.90
51637;DHT22;37713;53.254;6.460;2022-11-20T00:06:22;-0.60;99.90
51637;DHT22;37713;53.254;6.460;2022-11-20T00:08:48;-0.50;99.90
51637;DHT22;37713;53.254;6.460;2022-11-20T00:11:17;-0.60;99.90
51637;DHT22;37713;53.254;6.460;2022-11-20T00:13:44;-0.50;99.90
51637;DHT22;37713;53.254;6.460;2022-11-20T00:16:12;-0.50;99.90
51637;DHT22;37713;53.254;6.460;2022-11-20T00:18:38;-0.50;99.90
51637;DHT22;37713;53.254;6.460;2022-11-20T00:21:11;-0.50;99.90
51637;DHT22;37713;53.254;6.460;2022-11-20T00:23:38;-0.50;99.90
51637;DHT22;37713;53.254;6.460;2022-11-20T00:26:05;-0.50;99.90
51637;DHT22;37713;53.254;6.460;2022-11-20T00:28:31;-0.50;99.90
51637;DHT22;37713;53.254;6.460;2022-11-20T00:31:05;-0.50;99.90
51637;DHT22;37713;53.254;6.460;2022-11-20T00:33:31;-0.50;99.90
51637;DHT22;37713;53.254;6.460;2022-11-20T00:36:05;-0.40;99.90
51637;DHT22;37713;53.254;6.460;2022-11-20T00:38:32;-0.40;99.90
51637;DHT22;37713;53.254;6.460;2022-11-20T00:40:59;-0.30;99.90
51637;DHT22;37713;53.254;6.460;2022-11-20T00:43:26;-0.40;99.90
51637;DHT22;37713;53.254;6.460;2022-11-20T00:45:59;-0.30;99.90
51637;DHT22;37713;53.254;6.460;2022-11-20T00:48:25;-0.30;99.90
51637;DHT22;37713;53.254;6.460;2022-11-20T00:50:51;-0.30;99.90
51637;DHT22;37713;53.254;6.460;2022-11-20T00:53:17;-0.30;99.90
51637;DHT22;37713;53.254;6.460;2022-11-20T00:55:43;-0.30;99.90
51637;DHT22;37713;53.254;6.460;2022-11-20T00:58:09;-0.30;99.90
51637;DHT22;37713;53.254;6.460;2022-11-20T01:00:34;-0.30;99.90
51637;DHT22;37713;53.254;6.460;2022-11-20T01:03:00;-0.30;99.90
51637;DHT22;37713;53.254;6.460;2022-11-20T01:05:26;-0.40;99.90
51637;DHT22;37713;53.254;6.460;2022-11-20T01:07:51;-0.30;99.90
51637;DHT22;37713;53.254;6.460;2022-11-20T01:10:17;-0.30;99.90
51637;DHT22;37713;53.254;6.460;2022-11-20T01:12:43;-0.30;99.90
51637;DHT22;37713;53.254;6.460;2022-11-20T01:15:09;-0.30;99.90
51637;DHT22;37713;53.254;6.460;2022-11-20T01:17:35;-0.30;99.90
51637;DHT22;37713;53.254;6.460;2022-11-20T01:20:00;-0.30;99.90
51637;DHT22;37713;53.254;6.460;2022-11-20T01:22:26;-0.30;99.90
51637;DHT22;37713;53.254;6.460;2022-11-20T01:24:52;-0.30;99.90
51637;DHT22;37713;53.254;6.460;2022-11-20T01:27:17;-0.20;99.90
51637;DHT22;37713;53.254;6.460;2022-11-20T01:29:43;-0.20;99.90
51637;DHT22;37713;53.254;6.460;2022-11-20T01:32:09;-0.30;99.90
51637;DHT22;37713;53.254;6.460;2022-11-20T01:34:35;-0.30;99.90
51637;DHT22;37713;53.254;6.460;2022-11-20T01:37:00;-0.30;99.90
51637;DHT22;37713;53.254;6.460;2022-11-20T01:39:26;-0.20;99.90
51637;DHT22;37713;53.254;6.460;2022-11-20T01:41:53;-0.30;99.90
51637;DHT22;37713;53.254;6.460;2022-11-20T01:47:31;-0.30;99.90
51637;DHT22;37713;53.254;6.460;2022-11-20T01:50:13;-0.30;99.90
51637;DHT22;37713;53.254;6.460;2022-11-20T01:52:57;-0.30;99.90
51637;DHT22;37713;53.254;6.460;2022-11-20T01:55:27;-0.40;99.90
51637;DHT22;37713;53.254;6.460;2022-11-20T01:57:55;-0.30;99.90
51637;DHT22;37713;53.254;6.460;2022-11-20T02:00:21;-0.30;99.90
51637;DHT22;37713;53.254;6.460;2022-11-20T02:02:57;-0.30;99.90
51637;DHT22;37713;53.254;6.460;2022-11-20T02:05:36;-0.30;99.90
51637;DHT22;37713;53.254;6.460;2022-11-20T02:08:04;-0.30;99.90
51637;DHT22;37713;53.254;6.460;2022-11-20T02:10:31;-0.30;99.90
51637;DHT22;37713;53.254;6.460;2022-11-20T02:12:57;-0.20;99.90
51637;DHT22;37713;53.254;6.460;2022-11-20T02:15:42;-0.30;99.90
51637;DHT22;37713;53.254;6.460;2022-11-20T02:18:09;-0.30;99.90
51637;DHT22;37713;53.254;6.460;2022-11-20T02:20:36;-0.30;99.90
51637;DHT22;37713;53.254;6.460;2022-11-20T02:23:11;-0.30;99.90
51637;DHT22;37713;53.254;6.460;2022-11-20T02:25:38;-0.20;99.90
51637;DHT22;37713;53.254;6.460;2022-11-20T02:28:05;-0.10;99.90
51637;DHT22;37713;53.254;6.460;2022-11-20T02:30:31;-0.20;99.90
51637;DHT22;37713;53.254;6.460;2022-11-20T02:32:58;-0.30;99.90
51637;DHT22;37713;53.254;6.460;2022-11-20T02:37:54;0.00;99.90
51637;DHT22;37713;53.254;6.460;2022-11-20T02:40:21;-0.20;99.90
51637;DHT22;37713;53.254;6.460;2022-11-20T02:42:47;-0.10;99.90
51637;DHT22;37713;53.254;6.460;2022-11-20T02:45:13;-0.20;99.90
51637;DHT22;37713;53.254;6.460;2022-11-20T02:47:39;-0.10;99.90
51637;DHT22;37713;53.254;6.460;2022-11-20T02:50:06;-0.10;99.90
51637;DHT22;37713;53.254;6.460;2022-11-20T02:52:32;-0.20;99.90
51637;DHT22;37713;53.254;6.460;2022-11-20T02:54:58;-0.10;99.90
51637;DHT22;37713;53.254;6.460;2022-11-20T02:57:24;-0.20;99.90
51637;DHT22;37713;53.254;6.460;2022-11-20T02:59:49;-0.10;99.90
51637;DHT22;37713;53.254;6.460;2022-11-20T03:02:15;-0.10;99.90
51637;DHT22;37713;53.254;6.460;2022-11-20T03:04:41;-0.20;99.90
51637;DHT22;37713;53.254;6.460;2022-11-20T03:07:08;-0.10;99.90
51637;DHT22;37713;53.254;6.460;2022-11-20T03:09:34;-0.10;99.90
51637;DHT22;37713;53.254;6.460;2022-11-20T03:11:59;-0.20;99.90
51637;DHT22;37713;53.254;6.460;2022-11-20T03:14:25;-0.10;99.90
51637;DHT22;37713;53.254;6.460;2022-11-20T03:16:51;-0.20;99.90
51637;DHT22;37713;53.254;6.460;2022-11-20T03:19:17;-0.10;99.90
51637;DHT22;37713;53.254;6.460;2022-11-20T03:21:42;-0.20;99.90
51637;DHT22;37713;53.254;6.460;2022-11-20T03:24:08;-0.20;99.90
51637;DHT22;37713;53.254;6.460;2022-11-20T03:26:34;-0.20;99.90
51637;DHT22;37713;53.254;6.460;2022-11-20T03:29:01;-0.20;99.90
51637;DHT22;37713;53.254;6.460;2022-11-20T03:31:29;-0.10;99.90
51637;DHT22;37713;53.254;6.460;2022-11-20T03:33:57;-0.10;99.90
51637;DHT22;37713;53.254;6.460;2022-11-20T03:36:23;-0.20;99.90
51637;DHT22;37713;53.254;6.460;2022-11-20T03:38:49;-0.10;99.90
51637;DHT22;37713;53.254;6.460;2022-11-20T03:41:22;-0.10;99.90
51637;DHT22;37713;53.254;6.460;2022-11-20T03:43:55;-0.10;99.90
51637;DHT22;37713;53.254;6.460;2022-11-20T03:46:22;0.00;99.90
51637;DHT22;37713;53.254;6.460;2022-11-20T03:48:48;-0.20;99.90
51637;DHT22;37713;53.254;6.460;2022-11-20T03:51:20;-0.10;99.90
51637;DHT22;37713;53.254;6.460;2022-11-20T03:53:47;-0.10;99.90
51637;DHT22;37713;53.254;6.460;2022-11-20T03:56:15;-0.10;99.90
51637;DHT22;37713;53.254;6.460;2022-11-20T03:58:42;-0.10;99.90
51637;DHT22;37713;53.254;6.460;2022-11-20T04:01:13;-0.10;99.90
51637;DHT22;37713;53.254;6.460;2022-11-20T04:03:40;-0.10;99.90
51637;DHT22;37713;53.254;6.460;2022-11-20T04:06:09;-0.10;99.90
51637;DHT22;37713;53.254;6.460;2022-11-20T04:08:36;-0.10;99.90
51637;DHT22;37713;53.254;6.460;2022-11-20T04:11:18;-0.10;99.90
51637;DHT22;37713;53.254;6.460;2022-11-20T04:13:47;-0.10;99.90
51637;DHT22;37713;53.254;6.460;2022-11-20T04:16:13;-0.10;99.90
51637;DHT22;37713;53.254;6.460;2022-11-20T04:18:39;-0.10;99.90
51637;DHT22;37713;53.254;6.460;2022-11-20T04:21:05;-0.10;99.90
51637;DHT22;37713;53.254;6.460;2022-11-20T04:23:32;0.00;99.90
51637;DHT22;37713;53.254;6.460;2022-11-20T04:26:03;-0.10;99.90
51637;DHT22;37713;53.254;6.460;2022-11-20T04:28:29;-0.10;99.90
51637;DHT22;37713;53.254;6.460;2022-11-20T04:31:21;0.00;99.90
51637;DHT22;37713;53.254;6.460;2022-11-20T04:33:47;0.00;99.90
51637;DHT22;37713;53.254;6.460;2022-11-20T04:36:15;0.00;99.90
51637;DHT22;37713;53.254;6.460;2022-11-20T04:38:41;0.00;99.90
51637;DHT22;37713;53.254;6.460;2022-11-20T04:41:09;0.00;99.90
51637;DHT22;37713;53.254;6.460;2022-11-20T04:43:37;0.00;99.90
51637;DHT22;37713;53.254;6.460;2022-11-20T04:46:03;-0.10;99.90
51637;DHT22;37713;53.254;6.460;2022-11-20T04:48:29;0.00;99.90
51637;DHT22;37713;53.254;6.460;2022-11-20T04:50:55;-0.10;99.90
51637;DHT22;37713;53.254;6.460;2022-11-20T04:53:22;0.00;99.90
51637;DHT22;37713;53.254;6.460;2022-11-20T04:55:48;0.00;99.90
51637;DHT22;37713;53.254;6.460;2022-11-20T04:58:14;-0.10;99.90
51637;DHT22;37713;53.254;6.460;2022-11-20T05:00:40;-0.10;99.90
51637;DHT22;37713;53.254;6.460;2022-11-20T05:03:06;0.00;99.90
51637;DHT22;37713;53.254;6.460;2022-11-20T05:05:34;0.00;99.90
51637;DHT22;37713;53.254;6.460;2022-11-20T05:08:00;0.00;99.90
51637;DHT22;37713;53.254;6.460;2022-11-20T05:10:27;0.00;99.90
51637;DHT22;37713;53.254;6.460;2022-11-20T05:12:53;0.00;99.90
51637;DHT22;37713;53.254;6.460;2022-11-20T05:15:19;0.10;99.90
51637;DHT22;37713;53.254;6.460;2022-11-20T05:17:51;0.00;99.90
51637;DHT22;37713;53.254;6.460;2022-11-20T05:20:18;0.00;99.90
51637;DHT22;37713;53.254;6.460;2022-11-20T05:22:44;0.00;99.90
51637;DHT22;37713;53.254;6.460;2022-11-20T05:25:10;0.00;99.90
51637;DHT22;37713;53.254;6.460;2022-11-20T05:27:36;0.00;99.90
51637;DHT22;37713;53.254;6.460;2022-11-20T05:30:04;0.20;99.90
51637;DHT22;37713;53.254;6.460;2022-11-20T05:32:30;0.10;99.90
51637;DHT22;37713;53.254;6.460;2022-11-20T05:34:56;0.00;99.90
51637;DHT22;37713;53.254;6.460;2022-11-20T05:37:21;0.00;99.90
51637;DHT22;37713;53.254;6.460;2022-11-20T05:39:47;0.10;99.90
51637;DHT22;37713;53.254;6.460;2022-11-20T05:42:13;0.00;99.90
51637;DHT22;37713;53.254;6.460;2022-11-20T05:45:01;0.10;99.90
51637;DHT22;37713;53.254;6.460;2022-11-20T05:47:27;0.10;99.90
51637;DHT22;37713;53.254;6.460;2022-11-20T05:49:54;0.10;99.90
51637;DHT22;37713;53.254;6.460;2022-11-20T05:52:20;0.00;99.90
51637;DHT22;37713;53.254;6.460;2022-11-20T05:54:46;0.10;99.90
51637;DHT22;37713;53.254;6.460;2022-11-20T05:57:11;0.00;99.90
51637;DHT22;37713;53.254;6.460;2022-11-20T05:59:37;0.00;99.90
51637;DHT22;37713;53.254;6.460;2022-11-20T06:02:03;0.00;99.90
51637;DHT22;37713;53.254;6.460;2022-11-20T06:04:28;0.10;99.90
51637;DHT22;37713;53.254;6.460;2022-11-20T06:06:54;0.10;99.90
51637;DHT22;37713;53.254;6.460;2022-11-20T06:09:20;0.00;99.90
51637;DHT22;37713;53.254;6.460;2022-11-20T06:11:45;0.00;99.90
51637;DHT22;37713;53.254;6.460;2022-11-20T06:14:11;0.00;99.90
51637;DHT22;37713;53.254;6.460;2022-11-20T06:16:37;0.10;99.90
51637;DHT22;37713;53.254;6.460;2022-11-20T06:19:03;0.10;99.90
51637;DHT22;37713;53.254;6.460;2022-11-20T06:21:28;0.10;99.90
51637;DHT22;37713;53.254;6.460;2022-11-20T06:23:54;0.00;99.90
51637;DHT22;37713;53.254;6.460;2022-11-20T06:26:23;0.10;99.90
51637;DHT22;37713;53.254;6.460;2022-11-20T06:28:49;0.20;99.90
51637;DHT22;37713;53.254;6.460;2022-11-20T06:31:18;0.10;99.90
51637;DHT22;37713;53.254;6.460;2022-11-20T06:33:44;0.10;99.90
51637;DHT22;37713;53.254;6.460;2022-11-20T06:36:12;0.10;99.90
51637;DHT22;37713;53.254;6.460;2022-11-20T06:38:39;0.10;99.90
51637;DHT22;37713;53.254;6.460;2022-11-20T06:41:05;0.10;99.90
51637;DHT22;37713;53.254;6.460;2022-11-20T06:43:31;0.10;99.90
51637;DHT22;37713;53.254;6.460;2022-11-20T06:45:58;0.30;99.90
51637;DHT22;37713;53.254;6.460;2022-11-20T06:48:26;0.20;99.90
51637;DHT22;37713;53.254;6.460;2022-11-20T06:50:51;0.20;99.90
51637;DHT22;37713;53.254;6.460;2022-11-20T06:53:17;0.20;99.90
51637;DHT22;37713;53.254;6.460;2022-11-20T06:55:44;0.20;99.90
51637;DHT22;37713;53.254;6.460;2022-11-20T06:58:11;0.20;99.90
51637;DHT22;37713;53.254;6.460;2022-11-20T07:00:37;0.20;99.90
51637;DHT22;37713;53.254;6.460;2022-11-20T07:03:07;0.20;99.90
51637;DHT22;37713;53.254;6.460;2022-11-20T07:05:34;0.20;99.90
51637;DHT22;37713;53.254;6.460;2022-11-20T07:08:00;0.30;99.90
51637;DHT22;37713;53.254;6.460;2022-11-20T07:10:27;0.30;99.90
51637;DHT22;37713;53.254;6.460;2022-11-20T07:12:53;0.30;99.90
51637;DHT22;37713;53.254;6.460;2022-11-20T07:15:21;0.30;99.90
51637;DHT22;37713;53.254;6.460;2022-11-20T07:17:47;0.30;99.90
51637;DHT22;37713;53.254;6.460;2022-11-20T07:20:13;0.30;99.90
51637;DHT22;37713;53.254;6.460;2022-11-20T07:22:39;0.30;99.90
51637;DHT22;37713;53.254;6.460;2022-11-20T07:25:05;0.30;99.90
51637;DHT22;37713;53.254;6.460;2022-11-20T07:27:30;0.30;99.90
51637;DHT22;37713;53.254;6.460;2022-11-20T07:29:56;0.30;99.90
51637;DHT22;37713;53.254;6.460;2022-11-20T07:32:22;0.30;99.90
51637;DHT22;37713;53.254;6.460;2022-11-20T07:34:48;0.40;99.90
51637;DHT22;37713;53.254;6.460;2022-11-20T07:37:14;0.40;99.90
51637;DHT22;37713;53.254;6.460;2022-11-20T07:39:40;0.30;99.90
51637;DHT22;37713;53.254;6.460;2022-11-20T07:42:06;0.40;99.90
51637;DHT22;37713;53.254;6.460;2022-11-20T07:44:32;0.40;99.90
51637;DHT22;37713;53.254;6.460;2022-11-20T07:46:58;0.40;99.90
51637;DHT22;37713;53.254;6.460;2022-11-20T07:49:23;0.40;99.90
51637;DHT22;37713;53.254;6.460;2022-11-20T07:51:52;0.50;99.90
51637;DHT22;37713;53.254;6.460;2022-11-20T07:54:21;0.40;99.90
51637;DHT22;37713;53.254;6.460;2022-11-20T07:56:48;0.40;99.90
51637;DHT22;37713;53.254;6.460;2022-11-20T07:59:14;0.40;99.90
51637;DHT22;37713;53.254;6.460;2022-11-20T08:01:41;0.40;99.90
51637;DHT22;37713;53.254;6.460;2022-11-20T08:04:07;0.40;99.90
51637;DHT22;37713;53.254;6.460;2022-11-20T08:06:33;0.50;99.90
51637;DHT22;37713;53.254;6.460;2022-11-20T08:08:59;0.50;99.90
51637;DHT22;37713;53.254;6.460;2022-11-20T08:11:24;0.50;99.90
51637;DHT22;37713;53.254;6.460;2022-11-20T08:14:09;0.50;99.90
51637;DHT22;37713;53.254;6.460;2022-11-20T08:16:45;0.50;99.90
51637;DHT22;37713;53.254;6.460;2022-11-20T08:19:12;0.50;99.90
51637;DHT22;37713;53.254;6.460;2022-11-20T08:21:39;0.50;99.90
51637;DHT22;37713;53.254;6.460;2022-11-20T08:24:05;0.60;99.90
51637;DHT22;37713;53.254;6.460;2022-11-20T08:26:31;0.50;99.90
51637;DHT22;37713;53.254;6.460;2022-11-20T08:28:58;0.70;99.90
51637;DHT22;37713;53.254;6.460;2022-11-20T08:31:25;0.60;99.90
51637;DHT22;37713;53.254;6.460;2022-11-20T08:33:51;0.60;99.90
51637;DHT22;37713;53.254;6.460;2022-11-20T08:36:18;0.70;99.90
51637;DHT22;37713;53.254;6.460;2022-11-20T08:38:48;0.60;99.90
51637;DHT22;37713;53.254;6.460;2022-11-20T08:41:14;0.60;99.90
51637;DHT22;37713;53.254;6.460;2022-11-20T08:46:19;0.80;99.90
51637;DHT22;37713;53.254;6.460;2022-11-20T08:48:45;0.70;99.90
51637;DHT22;37713;53.254;6.460;2022-11-20T08:51:11;0.80;99.90
51637;DHT22;37713;53.254;6.460;2022-11-20T08:53:38;0.80;99.90
51637;DHT22;37713;53.254;6.460;2022-11-20T08:56:04;0.80;99.90
51637;DHT22;37713;53.254;6.460;2022-11-20T08:58:30;0.80;99.90
51637;DHT22;37713;53.254;6.460;2022-11-20T09:00:55;0.80;99.90
51637;DHT22;37713;53.254;6.460;2022-11-20T09:03:22;0.90;99.90
51637;DHT22;37713;53.254;6.460;2022-11-20T09:05:47;0.90;99.90
51637;DHT22;37713;53.254;6.460;2022-11-20T09:08:13;1.00;99.90
51637;DHT22;37713;53.254;6.460;2022-11-20T09:10:39;0.90;99.90
51637;DHT22;37713;53.254;6.460;2022-11-20T09:13:07;1.00;99.90
51637;DHT22;37713;53.254;6.460;2022-11-20T09:15:33;1.00;99.90
51637;DHT22;37713;53.254;6.460;2022-11-20T09:18:01;1.10;99.90
51637;DHT22;37713;53.254;6.460;2022-11-20T09:20:29;1.10;99.90
51637;DHT22;37713;53.254;6.460;2022-11-20T09:22:56;1.20;99.90
51637;DHT22;37713;53.254;6.460;2022-11-20T09:25:22;1.10;99.90
51637;DHT22;37713;53.254;6.460;2022-11-20T09:27:48;1.10;99.90
51637;DHT22;37713;53.254;6.460;2022-11-20T09:30:15;1.10;99.90
51637;DHT22;37713;53.254;6.460;2022-11-20T09:32:41;1.10;99.90
51637;DHT22;37713;53.254;6.460;2022-11-20T09:35:07;1.20;99.90
51637;DHT22;37713;53.254;6.460;2022-11-20T09:37:33;1.10;99.90
51637;DHT22;37713;53.254;6.460;2022-11-20T09:39:59;1.10;99.90
51637;DHT22;37713;53.254;6.460;2022-11-20T09:42:40;1.10;99.90
51637;DHT22;37713;53.254;6.460;2022-11-20T09:45:24;1.20;99.90
51637;DHT22;37713;53.254;6.460;2022-11-20T09:53:30;1.30;99.90
51637;DHT22;37713;53.254;6.460;2022-11-20T09:56:01;1.40;99.90
51637;DHT22;37713;53.254;6.460;2022-11-20T09:58:35;1.50;99.90
51637;DHT22;37713;53.254;6.460;2022-11-20T10:01:12;1.60;99.90
51637;DHT22;37713;53.254;6.460;2022-11-20T10:04:01;1.70;99.90
51637;DHT22;37713;53.254;6.460;2022-11-20T10:11:46;2.00;99.90
51637;DHT22;37713;53.254;6.460;2022-11-20T10:27:51;2.30;99.90
51637;DHT22;37713;53.254;6.460;2022-11-20T10:30:20;2.30;99.90
51637;DHT22;37713;53.254;6.460;2022-11-20T10:32:54;2.40;99.90
51637;DHT22;37713;53.254;6.460;2022-11-20T10:35:33;2.60;99.90
51637;DHT22;37713;53.254;6.460;2022-11-20T10:38:03;2.40;99.90
51637;DHT22;37713;53.254;6.460;2022-11-20T10:40:51;2.40;99.90
51637;DHT22;37713;53.254;6.460;2022-11-20T10:43:32;2.50;99.90
51637;DHT22;37713;53.254;6.460;2022-11-20T10:46:03;2.50;99.90
51637;DHT22;37713;53.254;6.460;2022-11-20T10:48:31;2.50;99.90
51637;DHT22;37713;53.254;6.460;2022-11-20T10:51:29;2.50;99.90
51637;DHT22;37713;53.254;6.460;2022-11-20T10:54:48;2.60;99.90
51637;DHT22;37713;53.254;6.460;2022-11-20T10:57:41;2.70;99.90
51637;DHT22;37713;53.254;6.460;2022-11-20T11:00:10;2.80;99.90
51637;DHT22;37713;53.254;6.460;2022-11-20T11:02:49;2.80;99.90
51637;DHT22;37713;53.254;6.460;2022-11-20T11:07:56;2.80;99.90
51637;DHT22;37713;53.254;6.460;2022-11-20T11:13:07;2.80;99.90
51637;DHT22;37713;53.254;6.460;2022-11-20T11:15:40;2.70;99.90
51637;DHT22;37713;53.254;6.460;2022-11-20T11:18:10;2.70;99.90
51637;DHT22;37713;53.254;6.460;2022-11-20T11:20:36;2.60;99.90
51637;DHT22;37713;53.254;6.460;2022-11-20T11:23:02;2.50;99.90
51637;DHT22;37713;53.254;6.460;2022-11-20T11:25:35;2.50;99.90
51637;DHT22;37713;53.254;6.460;2022-11-20T11:28:22;2.40;99.90
51637;DHT22;37713;53.254;6.460;2022-11-20T11:30:50;2.40;99.90
51637;DHT22;37713;53.254;6.460;2022-11-20T11:33:21;2.30;99.90
51637;DHT22;37713;53.254;6.460;2022-11-20T11:35:59;2.20;99.90
51637;DHT22;37713;53.254;6.460;2022-11-20T11:38:40;2.20;99.90
51637;DHT22;37713;53.254;6.460;2022-11-20T11:41:12;2.20;99.90
51637;DHT22;37713;53.254;6.460;2022-11-20T11:43:53;2.20;99.90
51637;DHT22;37713;53.254;6.460;2022-11-20T11:46:39;2.10;99.90
51637;DHT22;37713;53.254;6.460;2022-11-20T12:00:10;1.90;99.90
51637;DHT22;37713;53.254;6.460;2022-11-20T12:05:28;1.90;99.90
51637;DHT22;37713;53.254;6.460;2022-11-20T12:13:08;2.00;99.90
51637;DHT22;37713;53.254;6.460;2022-11-20T12:15:41;2.10;99.90
51637;DHT22;37713;53.254;6.460;2022-11-20T12:18:15;2.30;99.90
51637;DHT22;37713;53.254;6.460;2022-11-20T12:20:48;2.30;99.90
51637;DHT22;37713;53.254;6.460;2022-11-20T12:23:27;2.40;99.90
51637;DHT22;37713;53.254;6.460;2022-11-20T12:25:56;2.60;99.90
51637;DHT22;37713;53.254;6.460;2022-11-20T12:37:00;3.10;99.90
51637;DHT22;37713;53.254;6.460;2022-11-20T12:39:42;3.20;99.90
51637;DHT22;37713;53.254;6.460;2022-11-20T12:42:23;3.30;99.90
51637;DHT22;37713;53.254;6.460;2022-11-20T13:05:21;3.10;99.90
51637;DHT22;37713;53.254;6.460;2022-11-20T13:07:51;3.20;99.90
51637;DHT22;37713;53.254;6.460;2022-11-20T13:13:29;3.20;99.90
51637;DHT22;37713;53.254;6.460;2022-11-20T13:16:02;3.20;99.90
51637;DHT22;37713;53.254;6.460;2022-11-20T13:18:36;3.20;99.90
51637;DHT22;37713;53.254;6.460;2022-11-20T13:21:20;3.20;99.90
51637;DHT22;37713;53.254;6.460;2022-11-20T13:23:46;3.20;99.90
51637;DHT22;37713;53.254;6.460;2022-11-20T13:26:20;3.20;99.90
51637;DHT22;37713;53.254;6.460;2022-11-20T13:28:58;3.30;99.90
51637;DHT22;37713;53.254;6.460;2022-11-20T13:31:32;3.30;99.90
51637;DHT22;37713;53.254;6.460;2022-11-20T13:34:00;3.20;99.90
51637;DHT22;37713;53.254;6.460;2022-11-20T13:36:28;3.30;99.90
51637;DHT22;37713;53.254;6.460;2022-11-20T13:38:55;3.20;99.90
51637;DHT22;37713;53.254;6.460;2022-11-20T13:41:31;3.40;99.90
51637;DHT22;37713;53.254;6.460;2022-11-20T13:46:50;3.20;99.90
51637;DHT22;37713;53.254;6.460;2022-11-20T13:49:38;3.20;99.90
51637;DHT22;37713;53.254;6.460;2022-11-20T14:00:54;3.10;99.90
51637;DHT22;37713;53.254;6.460;2022-11-20T14:03:23;3.10;99.90
51637;DHT22;37713;53.254;6.460;2022-11-20T14:06:00;3.00;99.90
51637;DHT22;37713;53.254;6.460;2022-11-20T14:08:39;3.10;99.90
51637;DHT22;37713;53.254;6.460;2022-11-20T14:11:20;3.00;99.90
51637;DHT22;37713;53.254;6.460;2022-11-20T14:14:22;3.00;99.90
51637;DHT22;37713;53.254;6.460;2022-11-20T14:16:48;3.00;99.90
51637;DHT22;37713;53.254;6.460;2022-11-20T14:21:48;3.00;99.90
51637;DHT22;37713;53.254;6.460;2022-11-20T14:24:19;2.90;99.90
51637;DHT22;37713;53.254;6.460;2022-11-20T14:26:46;2.90;99.90
51637;DHT22;37713;53.254;6.460;2022-11-20T14:29:17;2.80;99.90
51637;DHT22;37713;53.254;6.460;2022-11-20T14:31:50;2.80;99.90
51637;DHT22;37713;53.254;6.460;2022-11-20T14:34:22;2.80;99.90
51637;DHT22;37713;53.254;6.460;2022-11-20T14:36:52;2.70;99.90
51637;DHT22;37713;53.254;6.460;2022-11-20T14:39:25;2.60;99.90
51637;DHT22;37713;53.254;6.460;2022-11-20T14:41:53;2.50;99.90
51637;DHT22;37713;53.254;6.460;2022-11-20T14:44:27;2.50;99.90
51637;DHT22;37713;53.254;6.460;2022-11-20T14:46:54;2.40;99.90
51637;DHT22;37713;53.254;6.460;2022-11-20T14:49:20;2.40;99.90
51637;DHT22;37713;53.254;6.460;2022-11-20T14:51:46;2.30;99.90
51637;DHT22;37713;53.254;6.460;2022-11-20T14:54:23;2.30;99.90
51637;DHT22;37713;53.254;6.460;2022-11-20T14:56:59;2.30;99.90
51637;DHT22;37713;53.254;6.460;2022-11-20T14:59:27;2.20;99.90
51637;DHT22;37713;53.254;6.460;2022-11-20T15:01:56;2.20;99.90
51637;DHT22;37713;53.254;6.460;2022-11-20T15:04:23;2.20;99.90
51637;DHT22;37713;53.254;6.460;2022-11-20T15:06:51;2.10;99.90
51637;DHT22;37713;53.254;6.460;2022-11-20T15:09:16;2.10;99.90
51637;DHT22;37713;53.254;6.460;2022-11-20T15:11:59;2.10;99.90
51637;DHT22;37713;53.254;6.460;2022-11-20T15:14:27;2.00;99.90
51637;DHT22;37713;53.254;6.460;2022-11-20T15:16:53;2.00;99.90
51637;DHT22;37713;53.254;6.460;2022-11-20T15:19:24;1.90;99.90
51637;DHT22;37713;53.254;6.460;2022-11-20T15:21:50;1.90;99.90
51637;DHT22;37713;53.254;6.460;2022-11-20T15:24:16;1.80;99.90
51637;DHT22;37713;53.254;6.460;2022-11-20T15:26:43;1.90;99.90
51637;DHT22;37713;53.254;6.460;2022-11-20T15:29:13;1.80;99.90
51637;DHT22;37713;53.254;6.460;2022-11-20T15:31:40;1.70;99.90
51637;DHT22;37713;53.254;6.460;2022-11-20T15:34:14;1.70;99.90
51637;DHT22;37713;53.254;6.460;2022-11-20T15:36:41;1.80;99.90
51637;DHT22;37713;53.254;6.460;2022-11-20T15:39:07;1.70;99.90
51637;DHT22;37713;53.254;6.460;2022-11-20T15:41:36;1.70;99.90
51637;DHT22;37713;53.254;6.460;2022-11-20T15:44:03;1.60;99.90
51637;DHT22;37713;53.254;6.460;2022-11-20T15:46:31;1.60;99.90
51637;DHT22;37713;53.254;6.460;2022-11-20T15:49:04;1.60;99.90
51637;DHT22;37713;53.254;6.460;2022-11-20T15:51:32;1.60;99.90
51637;DHT22;37713;53.254;6.460;2022-11-20T15:53:59;1.60;99.90
51637;DHT22;37713;53.254;6.460;2022-11-20T15:56:25;1.60;99.90
51637;DHT22;37713;53.254;6.460;2022-11-20T15:58:51;1.50;99.90
51637;DHT22;37713;53.254;6.460;2022-11-20T16:01:19;1.50;99.90
51637;DHT22;37713;53.254;6.460;2022-11-20T16:03:46;1.60;99.90
51637;DHT22;37713;53.254;6.460;2022-11-20T16:06:12;1.50;99.90
51637;DHT22;37713;53.254;6.460;2022-11-20T16:08:38;1.60;99.90
51637;DHT22;37713;53.254;6.460;2022-11-20T16:11:04;1.50;99.90
51637;DHT22;37713;53.254;6.460;2022-11-20T16:13:31;1.40;99.90
51637;DHT22;37713;53.254;6.460;2022-11-20T16:16:36;1.50;99.90
51637;DHT22;37713;53.254;6.460;2022-11-20T16:19:03;1.50;99.90
51637;DHT22;37713;53.254;6.460;2022-11-20T16:21:29;1.40;99.90
51637;DHT22;37713;53.254;6.460;2022-11-20T16:23:59;1.40;99.90
51637;DHT22;37713;53.254;6.460;2022-11-20T16:26:25;1.50;99.90
51637;DHT22;37713;53.254;6.460;2022-11-20T16:28:51;1.40;99.90
51637;DHT22;37713;53.254;6.460;2022-11-20T16:31:18;1.50;99.90
51637;DHT22;37713;53.254;6.460;2022-11-20T16:33:55;1.50;99.90
51637;DHT22;37713;53.254;6.460;2022-11-20T16:36:23;1.50;99.90
51637;DHT22;37713;53.254;6.460;2022-11-20T16:38:53;1.40;99.90
51637;DHT22;37713;53.254;6.460;2022-11-20T16:41:19;1.50;99.90
51637;DHT22;37713;53.254;6.460;2022-11-20T16:43:47;1.50;99.90
51637;DHT22;37713;53.254;6.460;2022-11-20T16:46:18;1.40;99.90
51637;DHT22;37713;53.254;6.460;2022-11-20T16:49:08;1.40;99.90
51637;DHT22;37713;53.254;6.460;2022-11-20T16:51:34;1.40;99.90
51637;DHT22;37713;53.254;6.460;2022-11-20T16:54:01;1.50;99.90
51637;DHT22;37713;53.254;6.460;2022-11-20T16:56:27;1.50;99.90
51637;DHT22;37713;53.254;6.460;2022-11-20T16:58:56;1.40;99.90
51637;DHT22;37713;53.254;6.460;2022-11-20T17:01:24;1.50;99.90
51637;DHT22;37713;53.254;6.460;2022-11-20T17:04:04;1.40;99.90
51637;DHT22;37713;53.254;6.460;2022-11-20T17:06:32;1.40;99.90
51637;DHT22;37713;53.254;6.460;2022-11-20T17:08:58;1.30;99.90
51637;DHT22;37713;53.254;6.460;2022-11-20T17:11:24;1.40;99.90
51637;DHT22;37713;53.254;6.460;2022-11-20T17:13:51;1.40;99.90
51637;DHT22;37713;53.254;6.460;2022-11-20T17:16:19;1.40;99.90
51637;DHT22;37713;53.254;6.460;2022-11-20T17:18:45;1.40;99.90
51637;DHT22;37713;53.254;6.460;2022-11-20T17:21:12;1.40;99.90
51637;DHT22;37713;53.254;6.460;2022-11-20T17:23:40;1.40;99.90
51637;DHT22;37713;53.254;6.460;2022-11-20T17:26:11;1.30;99.90
51637;DHT22;37713;53.254;6.460;2022-11-20T17:28:43;1.30;99.90
51637;DHT22;37713;53.254;6.460;2022-11-20T17:31:16;1.40;99.90
51637;DHT22;37713;53.254;6.460;2022-11-20T17:33:43;1.50;99.90
51637;DHT22;37713;53.254;6.460;2022-11-20T17:36:12;1.40;99.90
51637;DHT22;37713;53.254;6.460;2022-11-20T17:38:38;1.30;99.90